sensor_id;sensor_type;location;lat;lon;timestamp;temperature;humidity
50758;DHT22;36732;47.980;11.652;2023-05-10T00:02:09;18.10;64.40
50758;DHT22;36732;47.980;11.652;2023-05-10T00:04:35;18.10;64.40
50758;DHT22;36732;47.980;11.652;2023-05-10T00:07:00;18.10;64.40
50758;DHT22;36732;47.980;11.652;2023-05-10T00:09:26;18.10;64.40
50758;DHT22;36732;47.980;11.652;2023-05-10T00:11:52;18.10;64.50
50758;DHT22;36732;47.980;11.652;2023-05-10T00:14:18;18.10;64.50
50758;DHT22;36732;47.980;11.652;2023-05-10T00:16:44;18.10;64.60
50758;DHT22;36732;47.980;11.652;2023-05-10T00:19:10;18.00;64.60
50758;DHT22;36732;47.980;11.652;2023-05-10T00:21:36;18.10;64.50
50758;DHT22;36732;47.980;11.652;2023-05-10T00:24:02;18.10;64.60
50758;DHT22;36732;47.980;11.652;2023-05-10T00:26:28;18.00;64.60
50758;DHT22;36732;47.980;11.652;2023-05-10T00:28:53;18.10;64.70
50758;DHT22;36732;47.980;11.652;2023-05-10T00:31:19;18.00;64.60
50758;DHT22;36732;47.980;11.652;2023-05-10T00:33:45;18.00;64.60
50758;DHT22;36732;47.980;11.652;2023-05-10T00:36:11;18.00;64.70
50758;DHT22;36732;47.980;11.652;2023-05-10T00:38:37;18.00;64.70
50758;DHT22;36732;47.980;11.652;2023-05-10T00:41:03;18.00;64.80
50758;DHT22;36732;47.980;11.652;2023-05-10T00:43:29;18.00;64.70
50758;DHT22;36732;47.980;11.652;2023-05-10T00:45:55;18.00;64.80
50758;DHT22;36732;47.980;11.652;2023-05-10T00:48:21;18.00;64.90
50758;DHT22;36732;47.980;11.652;2023-05-10T00:50:47;18.00;64.90
50758;DHT22;36732;47.980;11.652;2023-05-10T00:53:13;18.00;64.90
50758;DHT22;36732;47.980;11.652;2023-05-10T00:55:39;18.00;65.00
50758;DHT22;36732;47.980;11.652;2023-05-10T00:58:05;18.00;65.00
50758;DHT22;36732;47.980;11.652;2023-05-10T01:00:32;18.00;65.10
50758;DHT22;36732;47.980;11.652;2023-05-10T01:02:58;18.00;65.20
50758;DHT22;36732;47.980;11.652;2023-05-10T01:05:25;17.90;65.10
50758;DHT22;36732;47.980;11.652;2023-05-10T01:07:52;17.90;65.10
50758;DHT22;36732;47.980;11.652;2023-05-10T01:10:18;17.90;65.10
50758;DHT22;36732;47.980;11.652;2023-05-10T01:12:45;17.90;65.10
50758;DHT22;36732;47.980;11.652;2023-05-10T01:15:12;17.90;65.80
50758;DHT22;36732;47.980;11.652;2023-05-10T01:17:40;17.90;65.10
50758;DHT22;36732;47.980;11.652;2023-05-10T01:20:09;17.90;65.10
50758;DHT22;36732;47.980;11.652;2023-05-10T01:29:05;17.90;65.50
50758;DHT22;36732;47.980;11.652;2023-05-10T01:34:42;17.90;65.40
50758;DHT22;36732;47.980;11.652;2023-05-10T01:37:20;17.80;65.20
50758;DHT22;36732;47.980;11.652;2023-05-10T01:39:55;17.80;65.20
50758;DHT22;36732;47.980;11.652;2023-05-10T01:42:29;17.80;65.40
50758;DHT22;36732;47.980;11.652;2023-05-10T01:45:11;17.80;66.00
50758;DHT22;36732;47.980;11.652;2023-05-10T01:47:46;17.80;65.60
50758;DHT22;36732;47.980;11.652;2023-05-10T01:50:24;17.80;65.60
50758;DHT22;36732;47.980;11.652;2023-05-10T01:52:55;17.80;65.70
50758;DHT22;36732;47.980;11.652;2023-05-10T01:55:25;17.80;65.50
50758;DHT22;36732;47.980;11.652;2023-05-10T01:58:03;17.80;65.60
50758;DHT22;36732;47.980;11.652;2023-05-10T02:00:32;17.80;65.80
50758;DHT22;36732;47.980;11.652;2023-05-10T02:03:00;17.80;65.50
50758;DHT22;36732;47.980;11.652;2023-05-10T02:05:30;17.80;65.50
50758;DHT22;36732;47.980;11.652;2023-05-10T02:07:58;17.80;65.50
50758;DHT22;36732;47.980;11.652;2023-05-10T02:10:24;17.70;65.50
50758;DHT22;36732;47.980;11.652;2023-05-10T02:12:51;17.70;65.40
50758;DHT22;36732;47.980;11.652;2023-05-10T02:15:22;17.70;65.50
50758;DHT22;36732;47.980;11.652;2023-05-10T02:17:48;17.70;65.50
50758;DHT22;36732;47.980;11.652;2023-05-10T02:20:16;17.70;65.50
50758;DHT22;36732;47.980;11.652;2023-05-10T02:22:45;17.70;65.60
50758;DHT22;36732;47.980;11.652;2023-05-10T02:25:13;17.70;65.50
50758;DHT22;36732;47.980;11.652;2023-05-10T02:27:41;17.70;65.50
50758;DHT22;36732;47.980;11.652;2023-05-10T02:30:07;17.70;65.60
50758;DHT22;36732;47.980;11.652;2023-05-10T02:32:34;17.70;65.50
50758;DHT22;36732;47.980;11.652;2023-05-10T02:35:01;17.70;65.60
50758;DHT22;36732;47.980;11.652;2023-05-10T02:37:29;17.70;65.50
50758;DHT22;36732;47.980;11.652;2023-05-10T02:39:55;17.70;65.80
50758;DHT22;36732;47.980;11.652;2023-05-10T02:42:29;17.70;65.60
50758;DHT22;36732;47.980;11.652;2023-05-10T02:45:00;17.60;65.80
50758;DHT22;36732;47.980;11.652;2023-05-10T02:47:27;17.70;65.60
50758;DHT22;36732;47.980;11.652;2023-05-10T02:49:54;17.60;65.50
50758;DHT22;36732;47.980;11.652;2023-05-10T02:52:24;17.70;65.60
50758;DHT22;36732;47.980;11.652;2023-05-10T02:54:55;17.60;65.70
50758;DHT22;36732;47.980;11.652;2023-05-10T02:57:27;17.60;65.70
50758;DHT22;36732;47.980;11.652;2023-05-10T02:59:54;17.60;65.70
50758;DHT22;36732;47.980;11.652;2023-05-10T03:02:20;17.60;65.50
50758;DHT22;36732;47.980;11.652;2023-05-10T03:04:46;17.60;65.50
50758;DHT22;36732;47.980;11.652;2023-05-10T03:07:12;17.60;65.50
50758;DHT22;36732;47.980;11.652;2023-05-10T03:09:38;17.60;65.50
50758;DHT22;36732;47.980;11.652;2023-05-10T03:18:28;17.50;65.90
50758;DHT22;36732;47.980;11.652;2023-05-10T03:21:00;17.50;65.70
50758;DHT22;36732;47.980;11.652;2023-05-10T03:26:07;17.50;65.60
50758;DHT22;36732;47.980;11.652;2023-05-10T03:28:34;17.50;65.50
50758;DHT22;36732;47.980;11.652;2023-05-10T03:31:02;17.50;65.50
50758;DHT22;36732;47.980;11.652;2023-05-10T03:33:28;17.50;65.60
50758;DHT22;36732;47.980;11.652;2023-05-10T03:35:54;17.50;65.60
50758;DHT22;36732;47.980;11.652;2023-05-10T03:38:20;17.50;65.60
50758;DHT22;36732;47.980;11.652;2023-05-10T03:40:46;17.50;65.60
50758;DHT22;36732;47.980;11.652;2023-05-10T03:43:11;17.50;65.70
50758;DHT22;36732;47.980;11.652;2023-05-10T03:45:37;17.50;65.70
50758;DHT22;36732;47.980;11.652;2023-05-10T03:48:03;17.50;65.70
50758;DHT22;36732;47.980;11.652;2023-05-10T03:50:29;17.50;65.70
50758;DHT22;36732;47.980;11.652;2023-05-10T03:52:54;17.50;65.70
50758;DHT22;36732;47.980;11.652;2023-05-10T03:55:20;17.50;65.80
50758;DHT22;36732;47.980;11.652;2023-05-10T03:57:46;17.50;65.80
50758;DHT22;36732;47.980;11.652;2023-05-10T04:00:12;17.50;65.70
50758;DHT22;36732;47.980;11.652;2023-05-10T04:02:38;17.40;65.70
50758;DHT22;36732;47.980;11.652;2023-05-10T04:05:04;17.40;65.60
50758;DHT22;36732;47.980;11.652;2023-05-10T04:07:29;17.40;65.60
50758;DHT22;36732;47.980;11.652;2023-05-10T04:09:55;17.50;65.70
50758;DHT22;36732;47.980;11.652;2023-05-10T04:12:21;17.40;65.70
50758;DHT22;36732;47.980;11.652;2023-05-10T04:14:47;17.40;65.70
50758;DHT22;36732;47.980;11.652;2023-05-10T04:17:12;17.40;65.70
50758;DHT22;36732;47.980;11.652;2023-05-10T04:19:38;17.40;65.80
50758;DHT22;36732;47.980;11.652;2023-05-10T04:22:04;17.40;66.60
50758;DHT22;36732;47.980;11.652;2023-05-10T04:24:29;17.40;65.80
50758;DHT22;36732;47.980;11.652;2023-05-10T04:26:55;17.40;65.80
50758;DHT22;36732;47.980;11.652;2023-05-10T04:29:21;17.40;65.80
50758;DHT22;36732;47.980;11.652;2023-05-10T04:31:46;17.40;65.70
50758;DHT22;36732;47.980;11.652;2023-05-10T04:34:12;17.40;65.70
50758;DHT22;36732;47.980;11.652;2023-05-10T04:36:38;17.40;65.70
50758;DHT22;36732;47.980;11.652;2023-05-10T04:39:04;17.40;65.80
50758;DHT22;36732;47.980;11.652;2023-05-10T04:41:30;17.40;65.80
50758;DHT22;36732;47.980;11.652;2023-05-10T04:43:55;17.40;65.80
50758;DHT22;36732;47.980;11.652;2023-05-10T04:46:21;17.40;65.80
50758;DHT22;36732;47.980;11.652;2023-05-10T04:48:47;17.40;65.70
50758;DHT22;36732;47.980;11.652;2023-05-10T04:51:13;17.40;65.70
50758;DHT22;36732;47.980;11.652;2023-05-10T04:53:39;17.30;65.60
50758;DHT22;36732;47.980;11.652;2023-05-10T04:56:05;17.30;65.70
50758;DHT22;36732;47.980;11.652;2023-05-10T04:58:31;17.30;65.80
50758;DHT22;36732;47.980;11.652;2023-05-10T05:00:57;17.30;66.50
50758;DHT22;36732;47.980;11.652;2023-05-10T05:03:22;17.30;65.80
50758;DHT22;36732;47.980;11.652;2023-05-10T05:05:48;17.30;65.90
50758;DHT22;36732;47.980;11.652;2023-05-10T05:08:14;17.20;65.90
50758;DHT22;36732;47.980;11.652;2023-05-10T05:10:39;17.20;66.00
50758;DHT22;36732;47.980;11.652;2023-05-10T05:13:05;17.20;66.10
50758;DHT22;36732;47.980;11.652;2023-05-10T05:15:31;17.20;66.20
50758;DHT22;36732;47.980;11.652;2023-05-10T05:17:57;17.20;66.20
50758;DHT22;36732;47.980;11.652;2023-05-10T05:20:23;17.20;66.20
50758;DHT22;36732;47.980;11.652;2023-05-10T05:22:48;17.20;66.30
50758;DHT22;36732;47.980;11.652;2023-05-10T05:25:14;17.20;66.10
50758;DHT22;36732;47.980;11.652;2023-05-10T05:27:41;17.10;66.20
50758;DHT22;36732;47.980;11.652;2023-05-10T05:30:07;17.10;66.20
50758;DHT22;36732;47.980;11.652;2023-05-10T05:32:33;17.10;66.10
50758;DHT22;36732;47.980;11.652;2023-05-10T05:34:59;17.10;66.10
50758;DHT22;36732;47.980;11.652;2023-05-10T05:37:25;17.10;66.10
50758;DHT22;36732;47.980;11.652;2023-05-10T05:39:50;17.10;66.10
50758;DHT22;36732;47.980;11.652;2023-05-10T05:42:16;17.10;66.20
50758;DHT22;36732;47.980;11.652;2023-05-10T05:44:43;17.10;66.10
50758;DHT22;36732;47.980;11.652;2023-05-10T05:47:09;17.10;65.90
50758;DHT22;36732;47.980;11.652;2023-05-10T05:49:35;17.10;66.00
50758;DHT22;36732;47.980;11.652;2023-05-10T05:52:03;17.00;66.10
50758;DHT22;36732;47.980;11.652;2023-05-10T05:54:29;17.00;66.20
50758;DHT22;36732;47.980;11.652;2023-05-10T05:57:00;17.00;66.20
50758;DHT22;36732;47.980;11.652;2023-05-10T05:59:26;17.00;66.30
50758;DHT22;36732;47.980;11.652;2023-05-10T06:01:52;17.00;66.30
50758;DHT22;36732;47.980;11.652;2023-05-10T06:04:18;17.00;66.40
50758;DHT22;36732;47.980;11.652;2023-05-10T06:06:44;17.00;66.50
50758;DHT22;36732;47.980;11.652;2023-05-10T06:09:10;17.00;66.50
50758;DHT22;36732;47.980;11.652;2023-05-10T06:11:36;17.00;66.70
50758;DHT22;36732;47.980;11.652;2023-05-10T06:14:03;17.00;66.80
50758;DHT22;36732;47.980;11.652;2023-05-10T06:16:30;17.00;66.90
50758;DHT22;36732;47.980;11.652;2023-05-10T06:18:56;17.00;66.80
50758;DHT22;36732;47.980;11.652;2023-05-10T06:21:22;17.00;66.90
50758;DHT22;36732;47.980;11.652;2023-05-10T06:23:47;17.00;66.90
50758;DHT22;36732;47.980;11.652;2023-05-10T06:26:13;17.00;66.90
50758;DHT22;36732;47.980;11.652;2023-05-10T06:28:39;17.00;66.90
50758;DHT22;36732;47.980;11.652;2023-05-10T06:31:06;17.00;66.50
50758;DHT22;36732;47.980;11.652;2023-05-10T06:33:32;17.00;66.40
50758;DHT22;36732;47.980;11.652;2023-05-10T06:35:58;17.00;66.30
50758;DHT22;36732;47.980;11.652;2023-05-10T06:38:24;17.00;66.40
50758;DHT22;36732;47.980;11.652;2023-05-10T06:40:49;17.00;66.50
50758;DHT22;36732;47.980;11.652;2023-05-10T06:43:15;16.90;66.30
50758;DHT22;36732;47.980;11.652;2023-05-10T06:45:41;16.90;66.40
50758;DHT22;36732;47.980;11.652;2023-05-10T06:48:07;16.90;66.40
50758;DHT22;36732;47.980;11.652;2023-05-10T06:50:33;16.90;66.40
50758;DHT22;36732;47.980;11.652;2023-05-10T06:52:59;16.90;66.30
50758;DHT22;36732;47.980;11.652;2023-05-10T06:55:25;16.90;66.50
50758;DHT22;36732;47.980;11.652;2023-05-10T06:57:52;16.80;66.50
50758;DHT22;36732;47.980;11.652;2023-05-10T07:00:18;16.80;66.70
50758;DHT22;36732;47.980;11.652;2023-05-10T07:02:44;16.80;66.80
50758;DHT22;36732;47.980;11.652;2023-05-10T07:05:10;16.80;66.90
50758;DHT22;36732;47.980;11.652;2023-05-10T07:07:36;16.80;67.10
50758;DHT22;36732;47.980;11.652;2023-05-10T07:10:02;16.80;67.20
50758;DHT22;36732;47.980;11.652;2023-05-10T07:12:28;16.80;67.20
50758;DHT22;36732;47.980;11.652;2023-05-10T07:14:54;16.80;67.40
50758;DHT22;36732;47.980;11.652;2023-05-10T07:17:20;16.80;67.80
50758;DHT22;36732;47.980;11.652;2023-05-10T07:19:46;16.80;67.70
50758;DHT22;36732;47.980;11.652;2023-05-10T07:22:12;16.80;67.90
50758;DHT22;36732;47.980;11.652;2023-05-10T07:24:38;16.90;67.90
50758;DHT22;36732;47.980;11.652;2023-05-10T07:27:04;16.90;68.20
50758;DHT22;36732;47.980;11.652;2023-05-10T07:29:30;16.90;68.30
50758;DHT22;36732;47.980;11.652;2023-05-10T07:31:55;16.90;68.30
50758;DHT22;36732;47.980;11.652;2023-05-10T07:34:21;16.90;68.40
50758;DHT22;36732;47.980;11.652;2023-05-10T07:36:47;17.00;68.50
50758;DHT22;36732;47.980;11.652;2023-05-10T07:39:13;17.00;68.80
50758;DHT22;36732;47.980;11.652;2023-05-10T07:41:38;17.00;68.50
50758;DHT22;36732;47.980;11.652;2023-05-10T07:44:05;17.00;68.40
50758;DHT22;36732;47.980;11.652;2023-05-10T07:46:31;17.00;68.40
50758;DHT22;36732;47.980;11.652;2023-05-10T07:48:57;17.00;68.40
50758;DHT22;36732;47.980;11.652;2023-05-10T07:51:23;17.10;68.40
50758;DHT22;36732;47.980;11.652;2023-05-10T07:53:49;17.10;68.20
50758;DHT22;36732;47.980;11.652;2023-05-10T07:56:25;17.10;68.20
50758;DHT22;36732;47.980;11.652;2023-05-10T07:58:58;17.10;68.60
50758;DHT22;36732;47.980;11.652;2023-05-10T08:01:25;17.10;68.50
50758;DHT22;36732;47.980;11.652;2023-05-10T08:03:51;17.10;68.50
50758;DHT22;36732;47.980;11.652;2023-05-10T08:06:19;17.10;68.50
50758;DHT22;36732;47.980;11.652;2023-05-10T08:08:46;17.20;68.50
50758;DHT22;36732;47.980;11.652;2023-05-10T08:11:18;17.20;68.40
50758;DHT22;36732;47.980;11.652;2023-05-10T08:13:44;17.20;68.40
50758;DHT22;36732;47.980;11.652;2023-05-10T08:16:10;17.20;68.40
50758;DHT22;36732;47.980;11.652;2023-05-10T08:18:37;17.20;68.50
50758;DHT22;36732;47.980;11.652;2023-05-10T08:21:03;17.20;68.00
50758;DHT22;36732;47.980;11.652;2023-05-10T08:23:29;17.20;67.90
50758;DHT22;36732;47.980;11.652;2023-05-10T08:25:54;17.20;67.90
50758;DHT22;36732;47.980;11.652;2023-05-10T08:28:20;17.20;67.70
50758;DHT22;36732;47.980;11.652;2023-05-10T08:30:46;17.20;67.50
50758;DHT22;36732;47.980;11.652;2023-05-10T08:33:11;17.20;67.70
50758;DHT22;36732;47.980;11.652;2023-05-10T08:35:37;17.20;66.80
50758;DHT22;36732;47.980;11.652;2023-05-10T08:38:03;17.20;66.60
50758;DHT22;36732;47.980;11.652;2023-05-10T08:40:29;17.20;66.70
50758;DHT22;36732;47.980;11.652;2023-05-10T08:43:04;17.20;66.80
50758;DHT22;36732;47.980;11.652;2023-05-10T08:45:33;17.20;67.10
50758;DHT22;36732;47.980;11.652;2023-05-10T08:48:06;17.20;67.00
50758;DHT22;36732;47.980;11.652;2023-05-10T08:50:36;17.20;67.20
50758;DHT22;36732;47.980;11.652;2023-05-10T08:53:05;17.20;67.30
50758;DHT22;36732;47.980;11.652;2023-05-10T08:55:34;17.20;67.10
50758;DHT22;36732;47.980;11.652;2023-05-10T08:58:02;17.20;67.10
50758;DHT22;36732;47.980;11.652;2023-05-10T09:00:29;17.20;66.70
50758;DHT22;36732;47.980;11.652;2023-05-10T09:02:55;17.20;66.60
50758;DHT22;36732;47.980;11.652;2023-05-10T09:05:21;17.20;66.50
50758;DHT22;36732;47.980;11.652;2023-05-10T09:07:46;17.20;66.40
50758;DHT22;36732;47.980;11.652;2023-05-10T09:10:13;17.20;66.30
50758;DHT22;36732;47.980;11.652;2023-05-10T09:12:39;17.20;66.60
50758;DHT22;36732;47.980;11.652;2023-05-10T09:15:05;17.20;66.70
50758;DHT22;36732;47.980;11.652;2023-05-10T09:17:32;17.20;66.80
50758;DHT22;36732;47.980;11.652;2023-05-10T09:19:59;17.20;67.10
50758;DHT22;36732;47.980;11.652;2023-05-10T09:22:25;17.20;67.10
50758;DHT22;36732;47.980;11.652;2023-05-10T09:25:24;17.20;67.10
50758;DHT22;36732;47.980;11.652;2023-05-10T09:27:50;17.20;67.20
50758;DHT22;36732;47.980;11.652;2023-05-10T09:30:26;17.20;66.80
50758;DHT22;36732;47.980;11.652;2023-05-10T09:32:57;17.20;66.90
50758;DHT22;36732;47.980;11.652;2023-05-10T09:35:27;17.20;67.00
50758;DHT22;36732;47.980;11.652;2023-05-10T09:37:56;17.20;67.10
50758;DHT22;36732;47.980;11.652;2023-05-10T09:40:24;17.30;67.10
50758;DHT22;36732;47.980;11.652;2023-05-10T09:45:25;17.30;66.80
50758;DHT22;36732;47.980;11.652;2023-05-10T09:47:52;17.30;66.80
50758;DHT22;36732;47.980;11.652;2023-05-10T09:50:19;17.30;66.90
50758;DHT22;36732;47.980;11.652;2023-05-10T09:52:47;17.30;66.80
50758;DHT22;36732;47.980;11.652;2023-05-10T09:55:13;17.30;66.50
50758;DHT22;36732;47.980;11.652;2023-05-10T09:57:40;17.30;66.60
50758;DHT22;36732;47.980;11.652;2023-05-10T10:00:07;17.30;66.40
50758;DHT22;36732;47.980;11.652;2023-05-10T10:02:35;17.30;66.60
50758;DHT22;36732;47.980;11.652;2023-05-10T10:05:02;17.30;66.60
50758;DHT22;36732;47.980;11.652;2023-05-10T10:07:31;17.30;66.40
50758;DHT22;36732;47.980;11.652;2023-05-10T10:09:58;17.30;66.20
50758;DHT22;36732;47.980;11.652;2023-05-10T10:12:25;17.30;66.90
50758;DHT22;36732;47.980;11.652;2023-05-10T10:14:51;17.30;66.40
50758;DHT22;36732;47.980;11.652;2023-05-10T10:17:17;17.30;66.50
50758;DHT22;36732;47.980;11.652;2023-05-10T10:19:43;17.40;66.60
50758;DHT22;36732;47.980;11.652;2023-05-10T10:22:10;17.40;66.70
50758;DHT22;36732;47.980;11.652;2023-05-10T10:24:38;17.40;66.80
50758;DHT22;36732;47.980;11.652;2023-05-10T10:30:13;17.40;66.70
50758;DHT22;36732;47.980;11.652;2023-05-10T10:33:06;17.40;66.80
50758;DHT22;36732;47.980;11.652;2023-05-10T10:35:49;17.40;66.80
50758;DHT22;36732;47.980;11.652;2023-05-10T10:38:16;17.40;66.70
50758;DHT22;36732;47.980;11.652;2023-05-10T10:40:42;17.40;66.70
50758;DHT22;36732;47.980;11.652;2023-05-10T10:43:27;17.40;66.70
50758;DHT22;36732;47.980;11.652;2023-05-10T10:46:16;17.40;66.70
50758;DHT22;36732;47.980;11.652;2023-05-10T10:48:50;17.40;67.00
50758;DHT22;36732;47.980;11.652;2023-05-10T10:51:37;17.50;66.90
50758;DHT22;36732;47.980;11.652;2023-05-10T10:54:10;17.50;67.00
50758;DHT22;36732;47.980;11.652;2023-05-10T10:56:36;17.50;66.90
50758;DHT22;36732;47.980;11.652;2023-05-10T10:59:02;17.50;66.90
50758;DHT22;36732;47.980;11.652;2023-05-10T11:01:33;17.50;66.90
50758;DHT22;36732;47.980;11.652;2023-05-10T11:06:30;17.50;66.90
50758;DHT22;36732;47.980;11.652;2023-05-10T11:08:59;17.50;66.90
50758;DHT22;36732;47.980;11.652;2023-05-10T11:11:31;17.50;66.80
50758;DHT22;36732;47.980;11.652;2023-05-10T11:14:03;17.50;66.80
50758;DHT22;36732;47.980;11.652;2023-05-10T11:16:43;17.50;66.80
50758;DHT22;36732;47.980;11.652;2023-05-10T11:19:17;17.50;67.10
50758;DHT22;36732;47.980;11.652;2023-05-10T11:24:18;17.60;67.20
50758;DHT22;36732;47.980;11.652;2023-05-10T11:26:44;17.60;67.00
50758;DHT22;36732;47.980;11.652;2023-05-10T11:29:12;17.60;67.00
50758;DHT22;36732;47.980;11.652;2023-05-10T11:31:45;17.60;67.00
50758;DHT22;36732;47.980;11.652;2023-05-10T11:34:26;17.60;67.00
50758;DHT22;36732;47.980;11.652;2023-05-10T11:36:54;17.60;66.70
50758;DHT22;36732;47.980;11.652;2023-05-10T11:39:21;17.60;66.70
50758;DHT22;36732;47.980;11.652;2023-05-10T11:41:50;17.60;66.50
50758;DHT22;36732;47.980;11.652;2023-05-10T11:44:16;17.60;66.60
50758;DHT22;36732;47.980;11.652;2023-05-10T11:46:42;17.60;66.50
50758;DHT22;36732;47.980;11.652;2023-05-10T11:49:08;17.60;66.40
50758;DHT22;36732;47.980;11.652;2023-05-10T11:51:35;17.50;66.30
50758;DHT22;36732;47.980;11.652;2023-05-10T11:54:06;17.50;66.30
50758;DHT22;36732;47.980;11.652;2023-05-10T11:56:33;17.50;66.20
50758;DHT22;36732;47.980;11.652;2023-05-10T11:58:59;17.50;66.20
50758;DHT22;36732;47.980;11.652;2023-05-10T12:01:27;17.50;66.20
50758;DHT22;36732;47.980;11.652;2023-05-10T12:03:55;17.50;66.10
50758;DHT22;36732;47.980;11.652;2023-05-10T12:06:27;17.40;66.00
50758;DHT22;36732;47.980;11.652;2023-05-10T12:08:58;17.40;65.90
50758;DHT22;36732;47.980;11.652;2023-05-10T12:11:28;17.40;65.80
50758;DHT22;36732;47.980;11.652;2023-05-10T12:13:55;17.40;65.90
50758;DHT22;36732;47.980;11.652;2023-05-10T12:16:23;17.30;65.70
50758;DHT22;36732;47.980;11.652;2023-05-10T12:18:51;17.30;66.00
50758;DHT22;36732;47.980;11.652;2023-05-10T12:21:18;17.30;66.10
50758;DHT22;36732;47.980;11.652;2023-05-10T12:23:46;17.20;66.20
50758;DHT22;36732;47.980;11.652;2023-05-10T12:26:14;17.20;66.40
50758;DHT22;36732;47.980;11.652;2023-05-10T12:28:40;17.20;66.50
50758;DHT22;36732;47.980;11.652;2023-05-10T12:31:06;17.20;66.60
50758;DHT22;36732;47.980;11.652;2023-05-10T12:33:39;17.20;66.60
50758;DHT22;36732;47.980;11.652;2023-05-10T12:36:09;17.20;67.10
50758;DHT22;36732;47.980;11.652;2023-05-10T12:38:37;17.20;66.90
50758;DHT22;36732;47.980;11.652;2023-05-10T12:41:15;17.10;67.00
50758;DHT22;36732;47.980;11.652;2023-05-10T12:43:41;17.20;67.10
50758;DHT22;36732;47.980;11.652;2023-05-10T12:46:14;17.10;67.10
50758;DHT22;36732;47.980;11.652;2023-05-10T12:48:43;17.10;67.40
50758;DHT22;36732;47.980;11.652;2023-05-10T12:51:09;17.10;67.20
50758;DHT22;36732;47.980;11.652;2023-05-10T12:53:37;17.10;67.10
50758;DHT22;36732;47.980;11.652;2023-05-10T12:56:04;17.10;67.20
50758;DHT22;36732;47.980;11.652;2023-05-10T12:58:30;17.10;66.90
50758;DHT22;36732;47.980;11.652;2023-05-10T13:00:57;17.10;67.00
50758;DHT22;36732;47.980;11.652;2023-05-10T13:03:23;17.10;66.90
50758;DHT22;36732;47.980;11.652;2023-05-10T13:05:49;17.10;66.90
50758;DHT22;36732;47.980;11.652;2023-05-10T13:08:14;17.00;66.80
50758;DHT22;36732;47.980;11.652;2023-05-10T13:10:40;17.10;67.00
50758;DHT22;36732;47.980;11.652;2023-05-10T13:13:06;17.00;67.10
50758;DHT22;36732;47.980;11.652;2023-05-10T13:15:33;17.10;67.30
50758;DHT22;36732;47.980;11.652;2023-05-10T13:17:59;17.00;67.40
50758;DHT22;36732;47.980;11.652;2023-05-10T13:20:25;17.00;67.60
50758;DHT22;36732;47.980;11.652;2023-05-10T13:22:51;17.00;67.70
50758;DHT22;36732;47.980;11.652;2023-05-10T13:25:17;17.00;67.90
50758;DHT22;36732;47.980;11.652;2023-05-10T13:27:43;17.00;67.70
50758;DHT22;36732;47.980;11.652;2023-05-10T13:30:09;17.00;67.70
50758;DHT22;36732;47.980;11.652;2023-05-10T13:32:36;17.00;67.80
50758;DHT22;36732;47.980;11.652;2023-05-10T13:35:02;17.00;67.80
50758;DHT22;36732;47.980;11.652;2023-05-10T13:37:29;17.00;67.70
50758;DHT22;36732;47.980;11.652;2023-05-10T13:39:55;17.10;67.40
50758;DHT22;36732;47.980;11.652;2023-05-10T13:42:22;17.00;67.50
50758;DHT22;36732;47.980;11.652;2023-05-10T13:44:49;17.00;67.10
50758;DHT22;36732;47.980;11.652;2023-05-10T13:47:15;17.00;67.90
50758;DHT22;36732;47.980;11.652;2023-05-10T13:49:41;17.00;67.20
50758;DHT22;36732;47.980;11.652;2023-05-10T13:52:07;17.00;67.10
50758;DHT22;36732;47.980;11.652;2023-05-10T13:54:36;17.00;66.90
50758;DHT22;36732;47.980;11.652;2023-05-10T13:57:03;17.00;67.10
50758;DHT22;36732;47.980;11.652;2023-05-10T13:59:30;17.00;67.20
50758;DHT22;36732;47.980;11.652;2023-05-10T14:01:59;17.00;67.30
50758;DHT22;36732;47.980;11.652;2023-05-10T14:04:28;17.00;67.00
50758;DHT22;36732;47.980;11.652;2023-05-10T14:06:54;17.00;66.70
50758;DHT22;36732;47.980;11.652;2023-05-10T14:09:19;17.00;66.50
50758;DHT22;36732;47.980;11.652;2023-05-10T14:11:45;17.00;66.60
50758;DHT22;36732;47.980;11.652;2023-05-10T14:14:11;17.00;66.70
50758;DHT22;36732;47.980;11.652;2023-05-10T14:16:45;17.00;66.80
50758;DHT22;36732;47.980;11.652;2023-05-10T14:19:11;16.90;67.00
50758;DHT22;36732;47.980;11.652;2023-05-10T14:21:37;17.00;67.60
50758;DHT22;36732;47.980;11.652;2023-05-10T14:24:03;16.90;67.00
50758;DHT22;36732;47.980;11.652;2023-05-10T14:26:29;16.90;66.90
50758;DHT22;36732;47.980;11.652;2023-05-10T14:28:55;16.90;66.90
50758;DHT22;36732;47.980;11.652;2023-05-10T14:31:21;16.90;67.00
50758;DHT22;36732;47.980;11.652;2023-05-10T14:33:48;16.90;67.00
50758;DHT22;36732;47.980;11.652;2023-05-10T14:36:14;16.90;67.00
50758;DHT22;36732;47.980;11.652;2023-05-10T14:38:40;16.90;66.90
50758;DHT22;36732;47.980;11.652;2023-05-10T14:41:05;16.90;66.90
50758;DHT22;36732;47.980;11.652;2023-05-10T14:43:31;16.90;67.00
50758;DHT22;36732;47.980;11.652;2023-05-10T14:45:57;16.90;67.00
50758;DHT22;36732;47.980;11.652;2023-05-10T14:48:23;16.90;66.90
50758;DHT22;36732;47.980;11.652;2023-05-10T14:50:49;16.90;66.90
50758;DHT22;36732;47.980;11.652;2023-05-10T14:53:15;16.80;67.00
50758;DHT22;36732;47.980;11.652;2023-05-10T14:55:41;16.80;67.00
50758;DHT22;36732;47.980;11.652;2023-05-10T14:58:07;16.80;66.90
50758;DHT22;36732;47.980;11.652;2023-05-10T15:00:32;16.80;67.10
50758;DHT22;36732;47.980;11.652;2023-05-10T15:02:58;16.80;67.10
50758;DHT22;36732;47.980;11.652;2023-05-10T15:05:24;16.80;67.10
50758;DHT22;36732;47.980;11.652;2023-05-10T15:07:50;16.80;67.10
50758;DHT22;36732;47.980;11.652;2023-05-10T15:10:17;16.80;67.00
50758;DHT22;36732;47.980;11.652;2023-05-10T15:12:43;16.80;67.10
50758;DHT22;36732;47.980;11.652;2023-05-10T15:15:08;16.80;67.00
50758;DHT22;36732;47.980;11.652;2023-05-10T15:17:34;16.80;67.00
50758;DHT22;36732;47.980;11.652;2023-05-10T15:20:00;16.80;66.90
50758;DHT22;36732;47.980;11.652;2023-05-10T15:22:28;16.80;66.90
50758;DHT22;36732;47.980;11.652;2023-05-10T15:24:55;16.80;66.90
50758;DHT22;36732;47.980;11.652;2023-05-10T15:27:21;16.80;66.80
50758;DHT22;36732;47.980;11.652;2023-05-10T15:29:46;16.80;66.70
50758;DHT22;36732;47.980;11.652;2023-05-10T15:32:12;16.80;66.60
50758;DHT22;36732;47.980;11.652;2023-05-10T15:34:38;16.70;66.60
50758;DHT22;36732;47.980;11.652;2023-05-10T15:37:03;16.70;66.40
50758;DHT22;36732;47.980;11.652;2023-05-10T15:39:29;16.70;66.50
50758;DHT22;36732;47.980;11.652;2023-05-10T15:41:55;16.70;66.50
50758;DHT22;36732;47.980;11.652;2023-05-10T15:44:21;16.70;66.50
50758;DHT22;36732;47.980;11.652;2023-05-10T15:46:47;16.70;66.50